Time;durP1;ratioP1;P1;durP2;ratioP2;P2;SDS_P1;SDS_P2;PMS_P1;PMS_P2;Temp;Humidity;BMP_temperature;BMP_pressure;BME280_temperature;BME280_humidity;BME280_pressure;Samples;Min_cycle;Max_cycle;Signal;HPM_P1;HPM_P2
2022/03/28 00:01:29;;;;;;;0.20;0.20;;;;;;;20.67;35.25;102244.19;5132086;27;20078;-30
2022/03/28 00:03:55;;;;;;;0.10;0.10;;;;;;;20.67;35.31;102252.50;5133630;27;20043;-30
2022/03/28 00:06:21;;;;;;;0.20;0.20;;;;;;;20.67;35.38;102241.44;5133846;27;20435;-29
2022/03/28 00:08:47;;;;;;;0.20;0.20;;;;;;;20.67;35.46;102238.66;5134877;27;20076;-30
2022/03/28 00:11:13;;;;;;;0.20;0.20;;;;;;;20.67;35.42;102233.13;5113246;27;20524;-30
2022/03/28 00:13:39;;;;;;;0.20;0.20;;;;;;;20.67;35.16;102232.28;5134467;27;20043;-30
2022/03/28 00:16:04;;;;;;;0.10;0.10;;;;;;;20.67;35.42;102237.84;5133786;27;20389;-30
2022/03/28 00:18:30;;;;;;;0.10;0.10;;;;;;;20.67;35.47;102233.13;5135460;27;20035;-30
2022/03/28 00:20:56;;;;;;;0.20;0.20;;;;;;;20.67;35.31;102221.22;5133829;27;20034;-31
2022/03/28 00:23:22;;;;;;;0.20;0.20;;;;;;;20.67;35.44;102224.81;5135589;27;20051;-30
2022/03/28 00:25:49;;;;;;;0.10;0.10;;;;;;;20.68;35.34;102220.97;5137590;27;20706;-30
2022/03/28 00:28:15;;;;;;;0.15;0.15;;;;;;;20.67;35.16;102213.75;5108852;27;20083;-30
2022/03/28 00:30:41;;;;;;;0.10;0.10;;;;;;;20.67;35.42;102207.38;5120910;27;20078;-30
2022/03/28 00:33:07;;;;;;;0.20;0.20;;;;;;;20.67;35.21;102201.84;5136439;27;20516;-30
2022/03/28 00:35:35;;;;;;;0.20;0.20;;;;;;;20.67;35.49;102197.16;5134438;27;20066;-29
2022/03/28 00:38:02;;;;;;;0.20;0.20;;;;;;;20.66;35.38;102200.19;5133237;27;20071;-31
2022/03/28 00:40:31;;;;;;;0.20;0.20;;;;;;;20.66;35.42;102202.94;5120145;27;20066;-30
2022/03/28 00:42:59;;;;;;;0.10;0.10;;;;;;;20.68;35.29;102206.28;5114392;28;20043;-30
2022/03/28 00:45:25;;;;;;;0.20;0.20;;;;;;;20.66;35.32;102191.88;5118129;27;20485;-30
2022/03/28 00:47:50;;;;;;;0.20;0.20;;;;;;;20.67;35.51;102188.84;5119128;27;20055;-30
2022/03/28 00:50:17;;;;;;;0.20;0.20;;;;;;;20.68;35.18;102186.91;5112691;27;20130;-30
2022/03/28 00:52:44;;;;;;;0.10;0.10;;;;;;;20.68;35.26;102187.75;5139263;27;20043;-30
2022/03/28 00:55:10;;;;;;;0.20;0.20;;;;;;;20.68;35.30;102184.13;5137851;27;20097;-30
2022/03/28 00:57:36;;;;;;;0.20;0.20;;;;;;;20.67;35.43;102185.25;5135187;27;20502;-29
2022/03/28 01:00:05;;;;;;;0.20;0.20;;;;;;;20.66;35.41;102180.81;5137076;27;20430;-30
2022/03/28 01:02:31;;;;;;;0.20;0.20;;;;;;;20.67;35.24;102182.47;5135652;27;20406;-30
2022/03/28 01:04:58;;;;;;;0.20;0.20;;;;;;;20.68;35.26;102182.22;5120632;27;20045;-30
2022/03/28 01:07:25;;;;;;;0.15;0.15;;;;;;;20.68;35.37;102185.00;5141800;27;20479;-30
2022/03/28 01:09:54;;;;;;;0.20;0.20;;;;;;;20.67;35.34;102176.94;5134248;27;20043;-29
2022/03/28 01:12:19;;;;;;;;;;;;;;;20.68;35.38;102181.38;5136121;27;20066;-29
2022/03/28 01:14:46;;;;;;;0.20;0.20;;;;;;;20.65;35.48;102176.38;5137732;27;19933;-29
2022/03/28 01:19:58;;;;;;;0.20;0.20;;;;;;;20.67;35.25;102176.94;5120485;27;20085;-30
2022/03/28 01:22:23;;;;;;;0.20;0.20;;;;;;;20.67;35.29;102168.63;5143219;27;20466;-29
2022/03/28 01:24:49;;;;;;;0.10;0.10;;;;;;;20.66;35.55;102159.50;5134251;27;20043;-30
2022/03/28 01:27:15;;;;;;;0.20;0.20;;;;;;;20.67;35.39;102157.56;5138973;27;20051;-30
2022/03/28 01:29:43;;;;;;;0.20;0.20;;;;;;;20.67;35.43;102152.84;5138623;27;20074;-30
2022/03/28 01:32:09;;;;;;;0.10;0.10;;;;;;;20.67;35.17;102161.16;5114407;27;20490;-29
2022/03/28 01:34:35;;;;;;;0.20;0.20;;;;;;;20.67;35.33;102146.47;5115722;27;20050;-29
2022/03/28 01:37:00;;;;;;;0.20;0.20;;;;;;;20.67;35.58;102143.72;5137590;27;20046;-30
2022/03/28 01:39:26;;;;;;;0.20;0.20;;;;;;;20.67;35.56;102143.72;5135477;27;20047;-29
2022/03/28 01:41:52;;;;;;;0.20;0.20;;;;;;;20.67;35.23;102138.19;5134990;27;20038;-30
2022/03/28 01:44:17;;;;;;;0.20;0.20;;;;;;;20.68;35.32;102142.63;5119363;27;20078;-29
2022/03/28 01:46:45;;;;;;;0.20;0.20;;;;;;;20.66;35.23;102140.13;5135587;27;20043;-30
2022/03/28 01:49:13;;;;;;;0.10;0.10;;;;;;;20.66;35.34;102130.97;5116632;27;20050;-30
2022/03/28 01:51:38;;;;;;;0.20;0.20;;;;;;;20.66;35.35;102130.97;5117407;27;20066;-30
2022/03/28 01:54:04;;;;;;;0.20;0.20;;;;;;;20.67;35.48;102139.00;5118833;27;20050;-30
2022/03/28 01:56:30;;;;;;;0.20;0.20;;;;;;;20.68;35.31;102137.06;5132104;27;20043;-30
2022/03/28 01:58:56;;;;;;;0.20;0.20;;;;;;;20.66;35.47;102128.22;5118286;27;20039;-30
2022/03/28 02:01:21;;;;;;;0.20;0.20;;;;;;;20.66;35.51;102134.59;5132609;27;20038;-30
2022/03/28 02:03:47;;;;;;;0.20;0.20;;;;;;;20.66;35.35;102137.34;5132840;27;20043;-30
2022/03/28 02:06:13;;;;;;;0.20;0.20;;;;;;;20.66;35.50;102134.59;5136726;27;20485;-30
2022/03/28 02:08:39;;;;;;;0.20;0.20;;;;;;;20.66;35.38;102130.97;5131261;27;20499;-30
2022/03/28 02:11:04;;;;;;;0.20;0.20;;;;;;;20.67;35.27;102130.72;5137069;27;20382;-30
2022/03/28 02:13:30;;;;;;;0.20;0.20;;;;;;;20.67;35.21;102121.56;5134528;27;20051;-29
2022/03/28 02:15:56;;;;;;;0.20;0.20;;;;;;;20.67;35.27;102127.94;5135396;27;20054;-30
2022/03/28 02:18:21;;;;;;;0.20;0.20;;;;;;;20.68;35.32;102115.78;5130295;27;20497;-30
2022/03/28 02:20:47;;;;;;;0.20;0.20;;;;;;;20.67;35.33;102118.81;5134039;27;20042;-30
2022/03/28 02:23:13;;;;;;;0.20;0.20;;;;;;;20.66;35.47;102117.16;5135576;27;20051;-30
2022/03/28 02:25:39;;;;;;;0.10;0.10;;;;;;;20.65;35.28;102119.06;5133521;27;20054;-30
2022/03/28 02:28:05;;;;;;;0.20;0.20;;;;;;;20.65;35.44;102113.53;5138680;27;20057;-30
2022/03/28 02:30:31;;;;;;;0.20;0.20;;;;;;;20.66;35.51;102114.38;5137846;27;20043;-29
2022/03/28 02:32:57;;;;;;;0.20;0.20;;;;;;;20.66;35.43;102114.38;5132641;27;20394;-30
2022/03/28 02:35:23;;;;;;;0.20;0.20;;;;;;;20.67;35.48;102104.97;5140274;27;20122;-30
2022/03/28 02:37:50;;;;;;;0.20;0.20;;;;;;;20.67;35.21;102114.09;5113682;27;20580;-29
2022/03/28 02:40:16;;;;;;;0.20;0.20;;;;;;;20.66;35.58;102112.44;5112225;27;20512;-29
2022/03/28 02:42:42;;;;;;;0.20;0.20;;;;;;;20.66;35.45;102108.84;5117710;27;20074;-30
2022/03/28 02:45:09;;;;;;;0.20;0.20;;;;;;;20.66;35.41;102101.38;5118301;27;20393;-30
2022/03/28 02:47:35;;;;;;;0.20;0.20;;;;;;;20.66;35.56;102103.31;5115047;27;20081;-30
2022/03/28 02:50:00;;;;;;;0.20;0.20;;;;;;;20.65;35.23;102096.94;5114061;27;20038;-30
2022/03/28 02:52:26;;;;;;;0.20;0.20;;;;;;;20.66;35.42;102092.22;5131417;27;20047;-30
2022/03/28 02:54:53;;;;;;;0.20;0.20;;;;;;;20.66;35.32;102089.47;5116904;27;20034;-30
2022/03/28 02:57:18;;;;;;;0.20;0.20;;;;;;;20.66;35.59;102079.22;5112868;27;20078;-30
2022/03/28 02:59:44;;;;;;;0.20;0.20;;;;;;;20.65;35.33;102071.19;5137157;27;20047;-30
2022/03/28 03:02:10;;;;;;;0.20;0.20;;;;;;;20.65;35.56;102069.25;5134067;27;20066;-30
2022/03/28 03:04:36;;;;;;;0.20;0.20;;;;;;;20.65;35.60;102060.13;5134921;27;20058;-30
2022/03/28 03:07:02;;;;;;;0.20;0.20;;;;;;;20.66;35.32;102067.31;5136080;27;20039;-30
2022/03/28 03:09:28;;;;;;;0.20;0.20;;;;;;;20.65;35.51;102063.72;5098027;27;20038;-29
2022/03/28 03:11:54;;;;;;;0.10;0.10;;;;;;;20.65;35.26;102063.72;5114466;27;20096;-30
2022/03/28 03:14:20;;;;;;;0.20;0.20;;;;;;;20.66;35.35;102057.06;5114987;28;20078;-30
2022/03/28 03:16:48;;;;;;;0.10;0.10;;;;;;;20.65;35.50;102057.34;5133070;27;20043;-29
2022/03/28 03:19:14;;;;;;;0.17;0.17;;;;;;;20.65;35.23;102052.66;5117000;27;20407;-31
2022/03/28 03:21:39;;;;;;;0.20;0.20;;;;;;;20.65;35.57;102055.41;5132925;27;20054;-29
2022/03/28 03:24:05;;;;;;;0.20;0.20;;;;;;;20.65;35.53;102047.13;5131301;27;20082;-30
2022/03/28 03:26:31;;;;;;;0.10;0.10;;;;;;;20.64;35.54;102045.44;5131987;27;20077;-30
2022/03/28 03:28:58;;;;;;;0.20;0.20;;;;;;;20.66;35.34;102053.47;5139501;27;20066;-29
2022/03/28 03:31:25;;;;;;;0.20;0.20;;;;;;;20.66;35.58;102056.25;5126740;27;20066;-30
2022/03/28 03:33:50;;;;;;;0.20;0.20;;;;;;;20.66;35.24;102051.53;5131392;27;20137;-29
2022/03/28 03:36:16;;;;;;;0.20;0.20;;;;;;;20.65;35.37;102052.66;5131908;27;20084;-30
2022/03/28 03:38:42;;;;;;;0.20;0.20;;;;;;;20.65;35.28;102052.66;5131823;27;20073;-30
2022/03/28 03:41:08;;;;;;;0.20;0.20;;;;;;;20.66;35.52;102050.72;5116631;27;20113;-30
2022/03/28 03:43:33;;;;;;;0.20;0.20;;;;;;;20.66;35.32;102046.00;5133138;27;20045;-30
2022/03/28 03:45:59;;;;;;;0.20;0.20;;;;;;;20.65;35.57;102049.06;5135354;27;20038;-30
2022/03/28 03:48:27;;;;;;;0.20;0.20;;;;;;;20.64;35.38;102041.81;5134441;27;20046;-30
2022/03/28 03:50:53;;;;;;;0.10;0.10;;;;;;;20.65;35.68;102037.97;5131528;27;20078;-29
2022/03/28 03:53:19;;;;;;;0.20;0.20;;;;;;;20.64;35.51;102039.91;5114425;27;20477;-30
2022/03/28 03:55:46;;;;;;;0.20;0.20;;;;;;;20.64;35.62;102039.06;5113885;27;20108;-30
2022/03/28 03:58:13;;;;;;;0.20;0.20;;;;;;;20.65;35.34;102035.22;5133455;27;20119;-29
2022/03/28 04:00:40;;;;;;;0.20;0.20;;;;;;;20.62;35.45;102033.78;5136059;27;20051;-29
2022/03/28 04:03:06;;;;;;;0.20;0.20;;;;;;;20.64;35.59;102033.53;5110500;27;20397;-31
2022/03/28 04:05:32;;;;;;;0.10;0.10;;;;;;;20.65;35.34;102032.44;5131357;27;20035;-29
2022/03/28 04:07:59;;;;;;;0.20;0.20;;;;;;;20.64;35.21;102028.84;5114659;27;20108;-30
2022/03/28 04:10:26;;;;;;;0.20;0.20;;;;;;;20.65;35.40;102029.69;5121899;27;20067;-29
2022/03/28 04:12:52;;;;;;;0.20;0.20;;;;;;;20.64;35.54;102023.31;5119899;27;20078;-30
2022/03/28 04:15:18;;;;;;;0.20;0.20;;;;;;;20.65;35.35;102032.44;5117118;27;20085;-30
2022/03/28 04:17:44;;;;;;;0.20;0.20;;;;;;;20.64;35.34;102020.53;5140527;27;20050;-30
2022/03/28 04:20:12;;;;;;;0.20;0.20;;;;;;;20.65;35.63;102024.97;5135934;27;20089;-30
2022/03/28 04:22:40;;;;;;;0.20;0.20;;;;;;;20.64;35.41;102019.69;5137628;27;20081;-30
2022/03/28 04:25:08;;;;;;;0.20;0.20;;;;;;;20.64;35.37;102020.53;5136005;27;20047;-30
2022/03/28 04:27:35;;;;;;;0.20;0.20;;;;;;;20.65;35.36;102013.06;5116551;27;20128;-30
2022/03/28 04:30:03;;;;;;;0.17;0.17;;;;;;;20.64;35.53;102006.69;5114176;27;20063;-30
2022/03/28 04:32:29;;;;;;;0.10;0.10;;;;;;;20.65;35.53;102004.75;5118880;27;20067;-30
2022/03/28 04:34:55;;;;;;;0.20;0.20;;;;;;;20.64;35.28;101998.41;5135272;27;20041;-30
2022/03/28 04:37:20;;;;;;;0.20;0.20;;;;;;;20.64;35.60;101995.63;5133414;27;20045;-30
2022/03/28 04:39:46;;;;;;;0.20;0.20;;;;;;;20.65;35.34;102008.38;5136806;27;20335;-30
2022/03/28 04:42:12;;;;;;;0.20;0.20;;;;;;;20.65;35.35;102002.00;5135717;27;20117;-30
2022/03/28 04:44:38;;;;;;;0.20;0.20;;;;;;;20.64;35.46;102001.16;5132698;27;20103;-30
2022/03/28 04:47:04;;;;;;;0.20;0.20;;;;;;;20.66;35.39;102003.66;5134762;27;20073;-30
2022/03/28 04:49:29;;;;;;;0.20;0.20;;;;;;;20.64;35.21;102014.16;5113632;27;20047;-30
2022/03/28 04:51:55;;;;;;;0.20;0.20;;;;;;;20.64;35.33;102001.16;5136513;27;20408;-31
2022/03/28 04:54:20;;;;;;;0.20;0.20;;;;;;;20.66;35.60;102009.19;5131273;27;20055;-29
2022/03/28 04:56:46;;;;;;;0.20;0.20;;;;;;;20.64;35.15;102012.25;5131181;27;20058;-31
2022/03/28 04:59:12;;;;;;;0.20;0.20;;;;;;;20.65;35.32;102015.84;5124811;27;20046;-29
2022/03/28 05:01:38;;;;;;;0.20;0.20;;;;;;;20.64;35.31;102012.25;5133279;27;20058;-29
2022/03/28 05:04:04;;;;;;;0.10;0.10;;;;;;;20.64;35.61;102014.16;5136473;27;20047;-30
2022/03/28 05:06:30;;;;;;;0.15;0.15;;;;;;;20.64;35.24;102014.16;5137074;27;20091;-30
2022/03/28 05:08:55;;;;;;;0.20;0.20;;;;;;;20.64;35.29;102008.59;5135517;27;20036;-30
2022/03/28 05:11:22;;;;;;;0.20;0.20;;;;;;;20.65;35.46;102004.75;5135236;27;20051;-30
2022/03/28 05:13:49;;;;;;;0.20;0.20;;;;;;;20.65;35.53;102011.13;5135659;27;20134;-29
2022/03/28 05:16:15;;;;;;;0.10;0.10;;;;;;;20.64;35.48;102015.00;5116918;27;20085;-30
2022/03/28 05:18:42;;;;;;;0.20;0.20;;;;;;;20.64;35.56;102015.00;5134594;27;20528;-30
2022/03/28 05:21:07;;;;;;;0.10;0.10;;;;;;;20.64;35.44;102012.25;5114984;27;20499;-29
2022/03/28 05:23:33;;;;;;;0.13;0.13;;;;;;;20.63;35.49;102009.72;5138438;27;20047;-30
2022/03/28 05:25:59;;;;;;;0.20;0.20;;;;;;;20.63;35.57;102005.00;5118443;27;20040;-29
2022/03/28 05:28:24;;;;;;;0.20;0.20;;;;;;;20.61;35.34;102007.22;5131124;27;20564;-31
2022/03/28 05:30:51;;;;;;;0.20;0.20;;;;;;;20.62;35.28;102006.13;5131213;27;20487;-29
2022/03/28 05:33:17;;;;;;;0.20;0.20;;;;;;;20.63;35.57;102006.94;5138624;27;20071;-29
2022/03/28 05:35:44;;;;;;;0.20;0.20;;;;;;;20.63;35.43;102006.94;5113529;27;20499;-29
2022/03/28 05:38:10;;;;;;;0.17;0.17;;;;;;;20.62;35.71;102003.34;5096406;27;20085;-29
2022/03/28 05:40:35;;;;;;;0.20;0.20;;;;;;;20.63;35.65;102010.53;5128100;27;20699;-29
2022/03/28 05:43:02;;;;;;;0.20;0.20;;;;;;;20.62;35.70;102000.56;5130560;27;20096;-29
2022/03/28 05:45:27;;;;;;;0.10;0.10;;;;;;;20.63;35.34;101999.47;5107854;27;20086;-28
2022/03/28 05:47:53;;;;;;;0.20;0.20;;;;;;;20.63;35.44;102012.47;5137599;27;20034;-30
2022/03/28 05:50:19;;;;;;;0.20;0.20;;;;;;;20.62;35.47;102008.88;5129557;27;20051;-29
2022/03/28 05:52:45;;;;;;;0.20;0.20;;;;;;;20.61;35.44;102007.22;5135232;27;20039;-29
2022/03/28 05:55:10;;;;;;;0.20;0.20;;;;;;;20.64;35.54;102008.59;5129632;27;20047;-29
2022/03/28 05:57:36;;;;;;;0.20;0.20;;;;;;;20.63;35.47;101998.63;5127164;27;20053;-29
2022/03/28 06:00:05;;;;;;;0.20;0.20;;;;;;;20.62;35.50;102008.06;5130413;27;20074;-31
2022/03/28 06:02:31;;;;;;;0.20;0.20;;;;;;;20.63;35.22;102015.25;5131498;27;20403;-30
2022/03/28 06:04:57;;;;;;;0.10;0.10;;;;;;;20.63;35.58;102007.78;5112472;27;20118;-30
2022/03/28 06:07:23;;;;;;;0.17;0.17;;;;;;;20.64;35.56;102009.47;5125020;27;20050;-30
2022/03/28 06:09:48;;;;;;;0.10;0.10;;;;;;;20.64;35.54;101997.53;5123502;27;20116;-28
2022/03/28 06:12:15;;;;;;;0.10;0.10;;;;;;;20.63;35.49;102002.25;5127144;27;20370;-28
2022/03/28 06:14:40;;;;;;;0.10;0.10;;;;;;;20.63;35.50;101996.69;5127242;27;20496;-28
2022/03/28 06:17:06;;;;;;;0.20;0.20;;;;;;;20.63;35.58;101999.47;5124300;27;20134;-28
2022/03/28 06:19:32;;;;;;;0.20;0.20;;;;;;;20.63;35.53;102002.25;5121582;27;20173;-28
2022/03/28 06:21:58;;;;;;;0.20;0.20;;;;;;;20.62;35.57;102003.34;5133439;27;20038;-28
2022/03/28 06:24:24;;;;;;;0.20;0.20;;;;;;;20.63;35.55;101996.69;5133611;27;20305;-28
2022/03/28 06:26:49;;;;;;;0.20;0.20;;;;;;;20.64;35.25;102000.31;5138828;27;20089;-28
2022/03/28 06:29:20;;;;;;;0.20;0.20;;;;;;;20.64;35.45;102003.06;5132872;27;20047;-28
2022/03/28 06:31:46;;;;;;;0.20;0.20;;;;;;;20.63;35.20;101993.94;5130669;27;20293;-30
2022/03/28 06:34:13;;;;;;;0.20;0.20;;;;;;;20.63;35.58;101990.34;5116306;27;20126;-29
2022/03/28 06:36:39;;;;;;;0.20;0.20;;;;;;;20.63;35.29;101991.16;5136091;27;20371;-29
2022/03/28 06:39:04;;;;;;;0.20;0.20;;;;;;;20.63;35.46;101996.69;5131127;27;20035;-29
2022/03/28 06:41:30;;;;;;;0.20;0.20;;;;;;;20.63;35.51;101991.16;5113007;28;20050;-29
2022/03/28 06:43:56;;;;;;;0.20;0.20;;;;;;;20.63;35.35;101996.69;5131858;27;20047;-29
2022/03/28 06:46:21;;;;;;;0.20;0.20;;;;;;;20.64;35.44;101994.78;5134154;27;20035;-29
2022/03/28 06:48:49;;;;;;;0.20;0.20;;;;;;;20.64;35.45;101994.78;5120218;27;20043;-29
2022/03/28 06:51:15;;;;;;;0.10;0.10;;;;;;;20.62;35.49;101988.69;5103587;27;20074;-30
2022/03/28 06:53:43;;;;;;;0.20;0.20;;;;;;;20.63;35.69;101985.63;5123473;27;20054;-29
2022/03/28 06:56:10;;;;;;;0.20;0.20;;;;;;;20.64;35.59;101987.31;5128827;27;20565;-30
2022/03/28 06:58:36;;;;;;;0.20;0.20;;;;;;;20.64;35.26;101986.47;5125703;27;20078;-30
2022/03/28 07:01:01;;;;;;;0.20;0.20;;;;;;;20.64;35.57;101983.69;5119010;27;20077;-29
2022/03/28 07:03:28;;;;;;;0.20;0.20;;;;;;;20.63;35.35;101973.72;5122505;27;20051;-30
2022/03/28 07:05:53;;;;;;;0.20;0.20;;;;;;;20.63;35.34;101985.63;5116585;27;20044;-30
2022/03/28 07:08:19;;;;;;;0.20;0.20;;;;;;;20.63;35.41;101982.88;5116671;27;20391;-28
2022/03/28 07:10:45;;;;;;;0.20;0.20;;;;;;;20.63;35.59;101985.63;5114150;27;20050;-28
2022/03/28 07:13:11;;;;;;;0.20;0.20;;;;;;;20.64;35.34;101981.78;5115142;27;20138;-30
2022/03/28 07:15:37;;;;;;;0.20;0.20;;;;;;;20.63;35.40;101980.09;5115057;27;20069;-30
2022/03/28 07:18:05;;;;;;;0.20;0.20;;;;;;;20.62;35.39;101975.66;5120786;27;20047;-30
2022/03/28 07:20:31;;;;;;;0.20;0.20;;;;;;;20.63;35.67;101968.19;5081373;27;20462;-29
2022/03/28 07:22:57;;;;;;;0.20;0.20;;;;;;;20.63;35.58;101971.78;5101191;28;20047;-30
2022/03/28 07:25:24;;;;;;;0.20;0.20;;;;;;;20.65;35.69;101966.00;5110364;27;20077;-30
2022/03/28 07:27:50;;;;;;;0.10;0.10;;;;;;;20.64;35.57;101972.63;5123411;27;20080;-29
2022/03/28 07:30:17;;;;;;;0.20;0.20;;;;;;;20.64;35.34;101964.31;5102610;28;20074;-28
2022/03/28 07:32:44;;;;;;;0.73;0.57;;;;;;;20.63;35.26;101970.97;5124388;27;20487;-30
2022/03/28 07:35:12;;;;;;;0.20;0.20;;;;;;;20.64;35.32;101962.41;5103344;27;20355;-29
2022/03/28 07:37:38;;;;;;;0.20;0.20;;;;;;;20.65;35.66;101971.56;5119454;27;20113;-29
2022/03/28 07:40:05;;;;;;;0.10;0.10;;;;;;;20.63;35.32;101960.72;5109371;27;20130;-30
2022/03/28 07:42:33;;;;;;;0.15;0.15;;;;;;;20.65;35.51;101952.19;5119305;27;20274;-29
2022/03/28 07:44:58;;;;;;;0.20;0.20;;;;;;;20.64;35.69;101962.41;5117924;27;20101;-28
2022/03/28 07:47:25;;;;;;;0.10;0.10;;;;;;;20.65;35.44;101957.72;5120880;27;20350;-28
2022/03/28 07:49:52;;;;;;;0.20;0.20;;;;;;;20.64;35.45;101956.00;5097366;28;20130;-29
2022/03/28 07:52:18;;;;;;;0.10;0.10;;;;;;;20.64;35.54;101953.25;5096822;28;20472;-31
2022/03/28 07:54:44;;;;;;;0.13;0.13;;;;;;;20.64;35.69;101944.94;5117751;27;20450;-30
2022/03/28 07:57:11;;;;;;;0.20;0.20;;;;;;;20.64;35.44;101948.56;5118249;27;20086;-29
2022/03/28 07:59:38;;;;;;;0.10;0.10;;;;;;;20.64;35.43;101943.03;5118934;27;20079;-30
2022/03/28 08:02:04;;;;;;;0.20;0.20;;;;;;;20.63;35.58;101937.75;5119202;27;20157;-30
2022/03/28 08:04:31;;;;;;;0.20;0.20;;;;;;;20.63;35.74;101941.34;5117228;27;20130;-29
2022/03/28 08:06:57;;;;;;;0.20;0.20;;;;;;;20.63;35.49;101935.81;5117389;27;20134;-30
2022/03/28 08:09:22;;;;;;;0.13;0.13;;;;;;;20.65;35.43;101936.41;5120548;27;20072;-30
2022/03/28 08:11:48;;;;;;;0.10;0.10;;;;;;;20.49;36.75;101932.69;5121927;27;20079;-30
2022/03/28 08:14:14;;;;;;;0.22;0.22;;;;;;;20.61;36.43;101929.72;5136238;27;20539;-30
2022/03/28 08:16:40;;;;;;;0.20;0.20;;;;;;;20.54;37.23;101931.88;5123548;27;20466;-28
2022/03/28 08:19:05;;;;;;;0.20;0.20;;;;;;;20.62;36.68;101923.09;5128345;27;20047;-29
2022/03/28 08:21:31;;;;;;;0.13;0.13;;;;;;;20.69;36.13;101917.31;5125021;27;20513;-29
2022/03/28 08:23:57;;;;;;;0.20;0.20;;;;;;;20.68;36.29;101922.03;5129505;27;20043;-28
2022/03/28 08:26:23;;;;;;;0.20;0.20;;;;;;;20.72;36.37;101925.06;5117994;27;20435;-29
2022/03/28 08:28:49;;;;;;;0.20;0.20;;;;;;;20.73;36.39;101916.53;5115433;27;20474;-29
2022/03/28 08:31:15;;;;;;;0.20;0.20;;;;;;;20.74;36.31;101922.88;5109849;27;20051;-29
2022/03/28 08:33:41;;;;;;;0.20;0.20;;;;;;;20.76;36.15;101910.44;5104802;27;20051;-30
2022/03/28 08:36:07;;;;;;;0.20;0.20;;;;;;;20.76;35.82;101913.19;5104047;27;20220;-29
2022/03/28 08:38:35;;;;;;;0.20;0.20;;;;;;;20.77;36.13;101894.69;5110094;27;21317;-29
2022/03/28 08:41:02;;;;;;;0.20;0.20;;;;;;;20.78;35.92;101905.47;5122754;27;20101;-28
2022/03/28 08:43:27;;;;;;;0.10;0.10;;;;;;;20.78;36.00;101904.66;5114666;27;20326;-29
2022/03/28 08:45:53;;;;;;;0.10;0.10;;;;;;;20.79;36.01;101903.53;5116109;27;20088;-29
2022/03/28 08:48:19;;;;;;;0.20;0.20;;;;;;;20.80;36.04;101907.97;5114091;27;20043;-30
2022/03/28 08:50:49;;;;;;;0.20;0.20;;;;;;;20.81;35.93;101898.56;5110068;27;20039;-29
2022/03/28 08:53:15;;;;;;;0.20;0.20;;;;;;;20.81;35.87;101898.56;5085419;27;20050;-30
2022/03/28 08:55:42;;;;;;;0.20;0.20;;;;;;;20.82;35.78;101900.25;5121054;27;20112;-29
2022/03/28 08:58:09;;;;;;;0.10;0.10;;;;;;;20.84;36.04;101889.72;5101654;27;20093;-28
2022/03/28 09:00:34;;;;;;;0.13;0.13;;;;;;;20.85;35.56;101891.38;5124219;27;20134;-29
2022/03/28 09:03:00;;;;;;;0.20;0.20;;;;;;;20.86;35.71;101889.47;5126546;27;20321;-30
2022/03/28 09:05:29;;;;;;;0.10;0.10;;;;;;;20.87;35.79;101885.59;5116748;27;20909;-31
2022/03/28 09:07:57;;;;;;;0.20;0.20;;;;;;;20.87;35.55;101889.19;5097833;27;20046;-29
2022/03/28 09:10:25;;;;;;;0.20;0.20;;;;;;;20.89;35.91;101898.03;5115589;27;20538;-31
2022/03/28 09:13:11;;;;;;;0.10;0.10;;;;;;;20.90;35.79;101891.44;5119515;27;20317;-29
2022/03/28 09:15:55;;;;;;;0.10;0.10;;;;;;;20.91;35.67;101883.94;5101636;27;20043;-29
2022/03/28 09:18:26;;;;;;;0.20;0.20;;;;;;;20.92;35.76;101871.75;5101976;27;20048;-30
2022/03/28 09:20:54;;;;;;;0.20;0.20;;;;;;;20.93;35.50;101870.66;5116494;27;20124;-29
2022/03/28 09:23:41;;;;;;;0.20;0.20;;;;;;;20.78;36.72;101869.50;5097307;27;20494;-33
2022/03/28 09:26:18;;;;;;;0.20;0.20;;;;;;;20.90;36.23;101863.75;5103931;27;20053;-28
2022/03/28 09:28:53;;;;;;;0.20;0.20;;;;;;;20.96;36.13;101862.66;5117556;27;20134;-29
2022/03/28 09:31:24;;;;;;;0.20;0.20;;;;;;;20.97;36.12;101858.75;5117721;27;20083;-29
2022/03/28 09:33:53;;;;;;;0.20;0.20;;;;;;;20.98;36.03;101856.81;5116260;27;20521;-29
2022/03/28 09:36:36;;;;;;;0.20;0.20;;;;;;;20.99;36.03;101850.22;5086844;27;20563;-28
2022/03/28 09:39:03;;;;;;;0.17;0.17;;;;;;;21.00;35.70;101849.94;5114797;27;20074;-30
2022/03/28 09:41:29;;;;;;;0.10;0.10;;;;;;;21.01;35.80;101851.59;5114797;27;20070;-29
2022/03/28 09:43:55;;;;;;;0.20;0.20;;;;;;;21.02;35.60;101849.63;5106161;27;20310;-30
2022/03/28 09:46:25;;;;;;;0.20;0.20;;;;;;;21.03;35.53;101852.16;5090786;27;20089;-30
2022/03/28 09:48:51;;;;;;;0.20;0.20;;;;;;;21.03;36.00;101845.78;5087541;27;20482;-30
2022/03/28 09:51:18;;;;;;;0.10;0.10;;;;;;;21.05;35.67;101844.41;5093139;27;20053;-29
2022/03/28 09:53:44;;;;;;;0.20;0.20;;;;;;;21.06;35.92;101842.47;5099102;27;20082;-30
2022/03/28 09:56:11;;;;;;;0.20;0.20;;;;;;;21.06;35.48;101836.91;5115933;27;20053;-29
2022/03/28 09:58:47;;;;;;;0.20;0.20;;;;;;;21.08;35.71;101833.91;5113935;27;20478;-29
2022/03/28 10:01:16;;;;;;;0.20;0.20;;;;;;;21.09;35.88;101833.63;5117703;27;20074;-30
2022/03/28 10:03:46;;;;;;;0.20;0.20;;;;;;;21.10;35.48;101832.50;5078747;27;20047;-32
2022/03/28 10:06:12;;;;;;;0.20;0.20;;;;;;;21.11;35.43;101836.09;5114619;27;20086;-31
2022/03/28 10:08:38;;;;;;;0.20;0.20;;;;;;;21.11;35.81;101834.16;5121745;27;20050;-30
2022/03/28 10:11:05;;;;;;;0.10;0.10;;;;;;;21.12;35.53;101835.03;5119074;27;20711;-31
2022/03/28 10:13:31;;;;;;;0.20;0.20;;;;;;;21.12;35.54;101827.53;5121885;27;20101;-28
2022/03/28 10:15:58;;;;;;;0.20;0.20;;;;;;;21.13;35.72;101829.19;5122510;27;20414;-28
2022/03/28 10:18:28;;;;;;;0.20;0.20;;;;;;;21.15;35.60;101831.69;5124088;27;20058;-27
2022/03/28 10:20:54;;;;;;;0.10;0.10;;;;;;;21.16;35.47;101823.13;5116400;27;20073;-28
2022/03/28 10:23:23;;;;;;;0.20;0.20;;;;;;;21.16;35.38;101820.34;5120139;27;20075;-28
2022/03/28 10:25:52;;;;;;;0.10;0.10;;;;;;;21.15;35.54;101812.28;5116406;27;20055;-29
2022/03/28 10:28:19;;;;;;;0.15;0.15;;;;;;;21.17;35.43;101815.66;5119359;27;20067;-27
2022/03/28 10:30:45;;;;;;;0.15;0.15;;;;;;;21.16;35.47;101803.72;5113977;27;20180;-27
2022/03/28 10:33:20;;;;;;;0.10;0.10;;;;;;;21.17;35.75;101805.41;5117637;27;20050;-28
2022/03/28 10:36:05;;;;;;;0.20;0.20;;;;;;;21.17;35.51;101799.84;5097385;27;20079;-27
2022/03/28 10:38:31;;;;;;;0.20;0.20;;;;;;;21.17;35.58;101793.47;5116376;27;20539;-28
2022/03/28 10:41:05;;;;;;;0.17;0.17;;;;;;;21.17;35.48;101793.47;5095218;27;20043;-29
2022/03/28 10:43:33;;;;;;;0.10;0.10;;;;;;;21.15;35.72;101792.91;5111090;27;20051;-29
2022/03/28 10:46:04;;;;;;;0.10;0.10;;;;;;;21.15;35.65;101782.66;5092041;27;20079;-28
2022/03/28 10:48:38;;;;;;;0.10;0.10;;;;;;;21.15;35.60;101781.81;5092125;27;21017;-29
2022/03/28 10:51:14;;;;;;;0.10;0.10;;;;;;;21.16;35.85;101777.97;5108140;27;20110;-29
2022/03/28 10:53:46;;;;;;;0.10;0.10;;;;;;;21.15;35.61;101781.81;5113873;27;20131;-29
2022/03/28 10:56:20;;;;;;;0.20;0.20;;;;;;;21.15;35.57;101779.06;5108092;27;20442;-27
2022/03/28 11:01:29;;;;;;;0.10;0.10;;;;;;;21.14;35.56;101769.91;5147482;27;20125;-30
2022/03/28 11:03:59;;;;;;;;;;;;;;;21.15;35.70;101765.22;5121441;27;20111;-32
2022/03/28 11:06:59;;;;;;;0.10;0.10;;;;;;;21.14;35.77;101761.59;5152960;27;20428;-31
2022/03/28 11:09:50;;;;;;;0.10;0.10;;;;;;;21.14;35.86;101755.25;5116546;27;20154;-32
2022/03/28 11:12:37;;;;;;;0.10;0.10;;;;;;;21.13;35.69;101754.41;5120526;27;20185;-38
2022/03/28 11:15:20;;;;;;;0.10;0.10;;;;;;;21.13;35.59;101754.41;5136327;27;20043;-35
2022/03/28 11:18:09;;;;;;;0.15;0.15;;;;;;;21.13;35.75;101750.81;5137799;27;20099;-31
2022/03/28 11:20:44;;;;;;;0.10;0.10;;;;;;;21.09;36.37;101745.00;5123884;27;20096;-35
2022/03/28 11:23:12;;;;;;;0.15;0.15;;;;;;;21.14;36.37;101745.00;5125258;27;20485;-34
2022/03/28 11:25:44;;;;;;;0.10;0.10;;;;;;;21.16;36.18;101742.78;5141218;27;20141;-37
2022/03/28 11:28:26;;;;;;;0.10;0.10;;;;;;;21.12;36.39;101735.31;5143383;27;20374;-34
2022/03/28 11:33:47;;;;;;;0.10;0.10;;;;;;;21.22;36.13;101729.78;5130858;27;20210;-35
2022/03/28 11:36:18;;;;;;;0.10;0.10;;;;;;;21.21;36.15;101723.41;5129923;27;20142;-35